Impacts METAR Board
IDs:

KDEN - Denver Intl, CO, US

Updated at: 0700 UTC 24 Jun 2018
Potential Impact None Slight Moderate High
Time 23/19Z 23/20Z 23/21Z 23/22Z 23/23Z 24/00Z 24/01Z 24/02Z 24/03Z 24/04Z 24/05Z 24/06Z 24/07Z
Temp84 84 86 86 87 86 84 79 73 65 64 60 58
Dewpt35 32 34 33 33 41 41 42 42 45 45 46 49
Altim29.93 29.90 29.87 29.85 29.84 29.82 29.82 29.83 29.86 29.91 29.94 30.01 29.99
VIS10 10 10 10 10 10 10 10 10 10 10 10 10
CIG220 220 -- -- -- -- -- -- 220 220 150 -- 160
CoverBKNBKNSCTSCTSCTFEWFEWFEWBKNBKNBKNSCTBKN
FltCatVFRVFRVFRVFRVFRVFRVFRVFRVFRVFRVFRVFRVFR
WX-------------------------RA
WDir340330100601201201001103035033010
WSpd10 7 13 0 6 11 5 8 4 18 21 17 14
WGst16 16 -- -- 17 22 -- -- -- 28 31 -- --
Raw hourly METARs
KDEN 231853Z 34010G16KT 10SM FEW080 SCT120 BKN220 29/02 A2993 RMK AO2 SLP053 T02890017
KDEN 231953Z 33007G16KT 10SM FEW080 SCT120 BKN220 29/00 A2990 RMK AO2 SLP042 T02890000
KDEN 232053Z 01013KT 10SM FEW080 SCT140 SCT220 30/01 A2987 RMK AO2 SLP030 T03000011 58025
KDEN 232153Z 00000KT 10SM FEW080 FEW140 SCT220 30/01 A2985 RMK AO2 SLP023 T03000006
KDEN 232253Z 06006G17KT 10SM FEW080 FEW140 SCT220 31/01 A2984 RMK AO2 SLP023 T03060006
KDEN 232353Z 12011G22KT 10SM FEW080 FEW140 FEW220 30/05 A2982 RMK AO2 SLP017 T03000050 10317 20272 56014
KDEN 240053Z 12005KT 10SM FEW080 FEW140 FEW220 29/05 A2982 RMK AO2 SLP010 T02890050
KDEN 240153Z 10008KT 10SM FEW080 FEW120 FEW220 26/06 A2983 RMK AO2 SLP014 VIRGA DSNT NW T02610056
KDEN 240253Z 11004KT 10SM FEW120 SCT160 BKN220 23/06 A2986 RMK AO2 SLP028 T02280056 53013
KDEN 240353Z 03018G28KT 10SM FEW120 SCT160 BKN220 18/07 A2991 RMK AO2 PK WND 02034/0316 SLP048 T01830072
KDEN 240504Z 35021G31KT 10SM SCT090 BKN150 BKN220 18/07 A2994 RMK AO2 PK WND 32031/0459 WSHFT 0444 LTG DSNT N CONS LTGICCCCG DSNT N CB DSNT N MOV E VCSH T01780072
KDEN 240553Z 33017KT 10SM FEW095 SCT140 SCT220 16/08 A3001 RMK AO2 PK WND 32031/0459 WSHFT 0444 LTG DSNT NE PRESRR SLP084 T01560078 10300 20156 53043
KDEN 240653Z 01014KT 10SM -RA FEW090 BKN160 BKN240 14/09 A2999 RMK AO2 LTG DSNT NE RAB43 SLP078 P0000 T01440094 403170106



Page loaded:  07:19 UTC  |   12:19 AM Pacific  |   01:19 AM Mountain  |   02:19 AM Central  |   03:19 AM Eastern

 

ADVISORIES

FORECASTS

FORECASTS

OBSERVATIONS

USER TOOLS

ABOUT US